Impacts TAF Board INFO
FOR SITUATIONAL AWARENESS. NOT TO BE USED FOR FLIGHT PLANNING PURPOSES.
IDs:

KEWR - Newark Intl, NJ, US

Issued at 1019 UTC 23 Jan 2018
Updated at 1022 UTC 23 Jan 2018
Potential Impact None Slight Moderate High
Time0951Z 23/11Z 23/12Z 23/13Z 23/14Z 23/15Z 23/16Z 23/17Z 23/18Z 23/19Z 23/20Z 23/21Z 23/22Z 23/23Z>>
Type OBS PRVL PRVL PRVL PRVL PRVL PRVL PRVL PRVL PRVL PRVL PRVL PRVL PRVL
VIS 0.5 2 2 2 1 1 1 1 1 4 4 >6 >6 >6
CIG 2 7 7 7 7 7 7 7 7 15 15 35 35 --
Cover OVC OVC OVC OVC OVC OVC OVC OVC OVC BKN BKN BKN BKN SCT
FltCat LIFR IFR IFR IFR IFR IFR IFR IFR IFR MVFR MVFR VFR VFR VFR
WX FG SHRA BR SHRA BR SHRA BR SHRA BR SHRA BR SHRA BR SHRA BR SHRA BR -SHRA -SHRA VCSH VCSH --
WDir 30 140 140 140 180 180 180 180 180 210 210 240 240 260
WSpd 6 5 5 5 15 15 15 15 15 13 13 10 10 13
WGst -- -- -- -- 25 25 25 25 25 21 21 -- -- 21

Raw TAF
KEWR 231019Z 2310/2412 04008KT 1SM BR OVC003 WS020/20035KT
  TEMPO 2310/2311 1/2SM FG OVC002
  FM231100 14005KT 2SM SHRA BR SCT004 OVC007 WS020/21040KT
  FM231400 18015G25KT 1SM SHRA BR BKN007 OVC012 WS020/20045KT
  FM231900 21013G21KT 4SM -SHRA SCT007 BKN015 WS020/20045KT
  FM232100 24010KT P6SM VCSH SCT015 BKN035
  FM232300 26013G21KT P6SM SCT070


Raw METAR
KEWR 230951Z 03006KT 1/2SM R04R/4500V5500FT FG OVC002 04/04 A2986 RMK AO2 SLP111 T00440039
KEWR 230935Z 01008KT 3/4SM R04R/P6000FT BR OVC003 04/04 A2988 RMK AO2 T00440039
KEWR 230851Z 04005KT 1 1/2SM BR OVC003 04/04 A2991 RMK AO2 SLP127 T00440039 56027
KEWR 230847Z 04005KT 1 1/2SM BR OVC003 04/04 A2991 RMK AO2
KEWR 230822Z COR 02007KT 2SM BR OVC004 04/03 A2993 RMK AO2 SFC VIS 2 1/2 T00440033
KEWR 230751Z 02004KT 3SM BR OVC005 04/03 A2995 RMK AO2 PRESFR SLP140 T00440033

METAR Board
Radar Display
Forecast Discussion

FOR SITUATIONAL AWARENESS. NOT TO BE USED FOR FLIGHT PLANNING PURPOSES.